sensor_id;sensor_type;location;lat;lon;timestamp;temperature;humidity
23305;DHT22;11821;51.456;8.844;2022-09-24T00:01:32;13.20;99.90
23305;DHT22;11821;51.456;8.844;2022-09-24T00:04:01;13.20;99.90
23305;DHT22;11821;51.456;8.844;2022-09-24T00:06:28;13.20;99.90
23305;DHT22;11821;51.456;8.844;2022-09-24T00:08:56;13.10;99.90
23305;DHT22;11821;51.456;8.844;2022-09-24T00:11:24;13.00;99.90
23305;DHT22;11821;51.456;8.844;2022-09-24T00:13:52;13.10;99.90
23305;DHT22;11821;51.456;8.844;2022-09-24T00:16:20;13.00;99.90
23305;DHT22;11821;51.456;8.844;2022-09-24T00:18:46;13.10;99.90
23305;DHT22;11821;51.456;8.844;2022-09-24T00:21:25;13.10;99.90
23305;DHT22;11821;51.456;8.844;2022-09-24T00:23:53;13.10;99.90
23305;DHT22;11821;51.456;8.844;2022-09-24T00:26:20;13.10;99.90
23305;DHT22;11821;51.456;8.844;2022-09-24T00:29:07;13.00;99.90
23305;DHT22;11821;51.456;8.844;2022-09-24T00:31:34;13.00;99.90
23305;DHT22;11821;51.456;8.844;2022-09-24T00:34:00;13.00;99.90
23305;DHT22;11821;51.456;8.844;2022-09-24T00:36:27;13.10;99.90
23305;DHT22;11821;51.456;8.844;2022-09-24T00:38:56;13.10;99.90
23305;DHT22;11821;51.456;8.844;2022-09-24T00:41:25;13.10;99.90
23305;DHT22;11821;51.456;8.844;2022-09-24T00:43:52;13.20;99.90
23305;DHT22;11821;51.456;8.844;2022-09-24T00:46:40;13.20;99.90
23305;DHT22;11821;51.456;8.844;2022-09-24T00:49:16;13.20;99.90
23305;DHT22;11821;51.456;8.844;2022-09-24T00:51:46;13.20;99.90
23305;DHT22;11821;51.456;8.844;2022-09-24T00:54:24;13.20;99.90
23305;DHT22;11821;51.456;8.844;2022-09-24T00:56:52;13.20;99.90
23305;DHT22;11821;51.456;8.844;2022-09-24T00:59:21;13.30;99.90
23305;DHT22;11821;51.456;8.844;2022-09-24T01:01:50;13.30;99.90
23305;DHT22;11821;51.456;8.844;2022-09-24T01:04:18;13.20;99.90
23305;DHT22;11821;51.456;8.844;2022-09-24T01:06:51;13.20;99.90
23305;DHT22;11821;51.456;8.844;2022-09-24T01:09:19;13.20;99.90
23305;DHT22;11821;51.456;8.844;2022-09-24T01:20:52;13.20;99.90
23305;DHT22;11821;51.456;8.844;2022-09-24T01:23:42;13.20;99.90
23305;DHT22;11821;51.456;8.844;2022-09-24T01:26:32;13.10;99.90
23305;DHT22;11821;51.456;8.844;2022-09-24T01:32:05;13.20;99.90
23305;DHT22;11821;51.456;8.844;2022-09-24T01:34:58;13.10;99.90
23305;DHT22;11821;51.456;8.844;2022-09-24T01:37:27;13.10;99.90
23305;DHT22;11821;51.456;8.844;2022-09-24T01:39:57;13.20;99.90
23305;DHT22;11821;51.456;8.844;2022-09-24T01:42:26;13.10;99.90
23305;DHT22;11821;51.456;8.844;2022-09-24T01:44:54;13.20;99.90
23305;DHT22;11821;51.456;8.844;2022-09-24T01:47:29;13.10;99.90
23305;DHT22;11821;51.456;8.844;2022-09-24T01:49:56;13.10;99.90
23305;DHT22;11821;51.456;8.844;2022-09-24T01:52:30;13.10;99.90
23305;DHT22;11821;51.456;8.844;2022-09-24T01:55:01;13.10;99.90
23305;DHT22;11821;51.456;8.844;2022-09-24T01:57:38;13.20;99.90
23305;DHT22;11821;51.456;8.844;2022-09-24T02:00:13;13.20;99.90
23305;DHT22;11821;51.456;8.844;2022-09-24T02:05:50;13.00;99.90
23305;DHT22;11821;51.456;8.844;2022-09-24T02:08:30;13.10;99.90
23305;DHT22;11821;51.456;8.844;2022-09-24T02:13:34;12.90;99.90
23305;DHT22;11821;51.456;8.844;2022-09-24T02:16:07;12.90;99.90
23305;DHT22;11821;51.456;8.844;2022-09-24T02:18:38;12.80;99.90
23305;DHT22;11821;51.456;8.844;2022-09-24T02:21:08;12.80;99.90
23305;DHT22;11821;51.456;8.844;2022-09-24T02:23:37;12.80;99.90
23305;DHT22;11821;51.456;8.844;2022-09-24T02:26:05;12.70;99.90
23305;DHT22;11821;51.456;8.844;2022-09-24T02:28:32;12.70;99.90
23305;DHT22;11821;51.456;8.844;2022-09-24T02:31:15;12.70;99.90
23305;DHT22;11821;51.456;8.844;2022-09-24T02:33:46;12.70;99.90
23305;DHT22;11821;51.456;8.844;2022-09-24T02:36:34;12.60;99.90
23305;DHT22;11821;51.456;8.844;2022-09-24T02:39:00;12.70;99.90
23305;DHT22;11821;51.456;8.844;2022-09-24T02:41:29;12.60;99.90
23305;DHT22;11821;51.456;8.844;2022-09-24T02:43:56;12.60;99.90
23305;DHT22;11821;51.456;8.844;2022-09-24T02:46:23;12.60;99.90
23305;DHT22;11821;51.456;8.844;2022-09-24T02:48:49;12.50;99.90
23305;DHT22;11821;51.456;8.844;2022-09-24T02:51:15;12.50;99.90
23305;DHT22;11821;51.456;8.844;2022-09-24T02:53:42;12.50;99.90
23305;DHT22;11821;51.456;8.844;2022-09-24T02:56:08;12.50;99.90
23305;DHT22;11821;51.456;8.844;2022-09-24T02:58:34;12.40;99.90
23305;DHT22;11821;51.456;8.844;2022-09-24T03:01:03;12.40;99.90
23305;DHT22;11821;51.456;8.844;2022-09-24T03:03:30;12.50;99.90
23305;DHT22;11821;51.456;8.844;2022-09-24T03:05:57;12.40;99.90
23305;DHT22;11821;51.456;8.844;2022-09-24T03:08:23;12.40;99.90
23305;DHT22;11821;51.456;8.844;2022-09-24T03:10:50;12.40;99.90
23305;DHT22;11821;51.456;8.844;2022-09-24T03:13:17;12.40;99.90
23305;DHT22;11821;51.456;8.844;2022-09-24T03:15:45;12.30;99.90
23305;DHT22;11821;51.456;8.844;2022-09-24T03:18:12;12.30;99.90
23305;DHT22;11821;51.456;8.844;2022-09-24T03:20:38;12.30;99.90
23305;DHT22;11821;51.456;8.844;2022-09-24T03:23:05;12.30;99.90
23305;DHT22;11821;51.456;8.844;2022-09-24T03:25:31;12.30;99.90
23305;DHT22;11821;51.456;8.844;2022-09-24T03:27:57;12.30;99.90
23305;DHT22;11821;51.456;8.844;2022-09-24T03:30:24;12.30;99.90
23305;DHT22;11821;51.456;8.844;2022-09-24T03:33:08;12.30;99.90
23305;DHT22;11821;51.456;8.844;2022-09-24T03:35:35;12.20;99.90
23305;DHT22;11821;51.456;8.844;2022-09-24T03:38:01;12.30;99.90
23305;DHT22;11821;51.456;8.844;2022-09-24T03:40:27;12.20;99.90
23305;DHT22;11821;51.456;8.844;2022-09-24T03:42:54;12.10;99.90
23305;DHT22;11821;51.456;8.844;2022-09-24T03:45:20;12.10;99.90
23305;DHT22;11821;51.456;8.844;2022-09-24T03:47:46;12.20;99.90
23305;DHT22;11821;51.456;8.844;2022-09-24T03:50:12;12.10;99.90
23305;DHT22;11821;51.456;8.844;2022-09-24T03:52:39;12.10;99.90
23305;DHT22;11821;51.456;8.844;2022-09-24T03:55:05;12.10;99.90
23305;DHT22;11821;51.456;8.844;2022-09-24T03:57:32;12.10;99.90
23305;DHT22;11821;51.456;8.844;2022-09-24T03:59:59;12.10;99.90
23305;DHT22;11821;51.456;8.844;2022-09-24T04:02:25;12.00;99.90
23305;DHT22;11821;51.456;8.844;2022-09-24T04:04:51;12.00;99.90
23305;DHT22;11821;51.456;8.844;2022-09-24T04:07:18;12.00;99.90
23305;DHT22;11821;51.456;8.844;2022-09-24T04:09:44;12.10;99.90
23305;DHT22;11821;51.456;8.844;2022-09-24T04:12:10;12.20;99.90
23305;DHT22;11821;51.456;8.844;2022-09-24T04:14:38;12.20;99.90
23305;DHT22;11821;51.456;8.844;2022-09-24T04:17:04;12.20;99.90
23305;DHT22;11821;51.456;8.844;2022-09-24T04:19:30;12.20;99.90
23305;DHT22;11821;51.456;8.844;2022-09-24T04:21:57;12.20;99.90
23305;DHT22;11821;51.456;8.844;2022-09-24T04:24:23;12.10;99.90
23305;DHT22;11821;51.456;8.844;2022-09-24T04:26:49;12.20;99.90
23305;DHT22;11821;51.456;8.844;2022-09-24T04:29:16;12.10;99.90
23305;DHT22;11821;51.456;8.844;2022-09-24T04:31:42;12.10;99.90
23305;DHT22;11821;51.456;8.844;2022-09-24T04:34:08;12.10;99.90
23305;DHT22;11821;51.456;8.844;2022-09-24T04:36:35;12.10;99.90
23305;DHT22;11821;51.456;8.844;2022-09-24T04:39:01;12.10;99.90
23305;DHT22;11821;51.456;8.844;2022-09-24T04:41:28;12.10;99.90
23305;DHT22;11821;51.456;8.844;2022-09-24T04:43:56;12.10;99.90
23305;DHT22;11821;51.456;8.844;2022-09-24T04:46:22;12.10;99.90
23305;DHT22;11821;51.456;8.844;2022-09-24T04:48:49;12.10;99.90
23305;DHT22;11821;51.456;8.844;2022-09-24T04:51:15;12.10;99.90
23305;DHT22;11821;51.456;8.844;2022-09-24T04:53:44;12.00;99.90
23305;DHT22;11821;51.456;8.844;2022-09-24T04:56:12;12.00;99.90
23305;DHT22;11821;51.456;8.844;2022-09-24T04:58:39;12.10;99.90
23305;DHT22;11821;51.456;8.844;2022-09-24T05:01:05;12.10;99.90
23305;DHT22;11821;51.456;8.844;2022-09-24T05:03:32;12.10;99.90
23305;DHT22;11821;51.456;8.844;2022-09-24T05:05:59;12.10;99.90
23305;DHT22;11821;51.456;8.844;2022-09-24T05:08:25;12.10;99.90
23305;DHT22;11821;51.456;8.844;2022-09-24T05:10:51;12.20;99.90
23305;DHT22;11821;51.456;8.844;2022-09-24T05:13:19;12.20;99.90
23305;DHT22;11821;51.456;8.844;2022-09-24T05:15:46;12.20;99.90
23305;DHT22;11821;51.456;8.844;2022-09-24T05:18:12;12.10;99.90
23305;DHT22;11821;51.456;8.844;2022-09-24T05:20:39;12.10;99.90
23305;DHT22;11821;51.456;8.844;2022-09-24T05:23:05;12.10;99.90
23305;DHT22;11821;51.456;8.844;2022-09-24T05:25:32;12.10;99.90
23305;DHT22;11821;51.456;8.844;2022-09-24T05:27:58;12.10;99.90
23305;DHT22;11821;51.456;8.844;2022-09-24T05:30:24;12.10;99.90
23305;DHT22;11821;51.456;8.844;2022-09-24T05:32:51;12.10;99.90
23305;DHT22;11821;51.456;8.844;2022-09-24T05:35:22;12.10;99.90
23305;DHT22;11821;51.456;8.844;2022-09-24T05:37:49;12.10;99.90
23305;DHT22;11821;51.456;8.844;2022-09-24T05:40:18;12.10;99.90
23305;DHT22;11821;51.456;8.844;2022-09-24T05:43:03;12.10;99.90
23305;DHT22;11821;51.456;8.844;2022-09-24T05:45:30;12.10;99.90
23305;DHT22;11821;51.456;8.844;2022-09-24T05:47:56;12.20;99.90
23305;DHT22;11821;51.456;8.844;2022-09-24T05:50:24;12.20;99.90
23305;DHT22;11821;51.456;8.844;2022-09-24T05:52:51;12.20;99.90
23305;DHT22;11821;51.456;8.844;2022-09-24T05:55:17;12.20;99.90
23305;DHT22;11821;51.456;8.844;2022-09-24T05:57:43;12.20;99.90
23305;DHT22;11821;51.456;8.844;2022-09-24T06:00:10;12.30;99.90
23305;DHT22;11821;51.456;8.844;2022-09-24T06:02:39;12.40;99.90
23305;DHT22;11821;51.456;8.844;2022-09-24T06:05:06;12.40;99.90
23305;DHT22;11821;51.456;8.844;2022-09-24T06:07:32;12.40;99.90
23305;DHT22;11821;51.456;8.844;2022-09-24T06:09:59;12.50;99.90
23305;DHT22;11821;51.456;8.844;2022-09-24T06:12:26;12.50;99.90
23305;DHT22;11821;51.456;8.844;2022-09-24T06:14:52;12.60;99.90
23305;DHT22;11821;51.456;8.844;2022-09-24T06:17:22;12.60;99.90
23305;DHT22;11821;51.456;8.844;2022-09-24T06:19:48;12.70;99.90
23305;DHT22;11821;51.456;8.844;2022-09-24T06:22:14;12.70;99.90
23305;DHT22;11821;51.456;8.844;2022-09-24T06:24:41;12.70;99.90
23305;DHT22;11821;51.456;8.844;2022-09-24T06:27:07;12.70;99.90
23305;DHT22;11821;51.456;8.844;2022-09-24T06:29:34;12.70;99.90
23305;DHT22;11821;51.456;8.844;2022-09-24T06:32:00;12.70;99.90
23305;DHT22;11821;51.456;8.844;2022-09-24T06:34:27;12.80;99.90
23305;DHT22;11821;51.456;8.844;2022-09-24T06:36:54;12.90;99.90
23305;DHT22;11821;51.456;8.844;2022-09-24T06:39:22;12.90;99.90
23305;DHT22;11821;51.456;8.844;2022-09-24T06:41:49;13.00;99.90
23305;DHT22;11821;51.456;8.844;2022-09-24T06:44:16;13.00;99.90
23305;DHT22;11821;51.456;8.844;2022-09-24T06:46:44;13.10;99.90
23305;DHT22;11821;51.456;8.844;2022-09-24T06:49:10;13.10;99.90
23305;DHT22;11821;51.456;8.844;2022-09-24T06:51:38;13.20;99.90
23305;DHT22;11821;51.456;8.844;2022-09-24T06:54:04;13.30;99.90
23305;DHT22;11821;51.456;8.844;2022-09-24T06:56:31;13.40;99.90
23305;DHT22;11821;51.456;8.844;2022-09-24T06:58:57;13.50;99.90
23305;DHT22;11821;51.456;8.844;2022-09-24T07:01:23;13.60;99.90
23305;DHT22;11821;51.456;8.844;2022-09-24T07:03:50;13.70;99.90
23305;DHT22;11821;51.456;8.844;2022-09-24T07:06:16;13.70;99.90
23305;DHT22;11821;51.456;8.844;2022-09-24T07:08:42;13.90;99.90
23305;DHT22;11821;51.456;8.844;2022-09-24T07:11:08;14.00;99.90
23305;DHT22;11821;51.456;8.844;2022-09-24T07:13:35;14.10;99.90
23305;DHT22;11821;51.456;8.844;2022-09-24T07:16:01;14.30;99.90
23305;DHT22;11821;51.456;8.844;2022-09-24T07:18:27;14.50;99.90
23305;DHT22;11821;51.456;8.844;2022-09-24T07:20:54;14.70;99.90
23305;DHT22;11821;51.456;8.844;2022-09-24T07:23:22;14.80;99.90
23305;DHT22;11821;51.456;8.844;2022-09-24T07:25:49;14.90;99.90
23305;DHT22;11821;51.456;8.844;2022-09-24T07:28:20;15.10;99.90
23305;DHT22;11821;51.456;8.844;2022-09-24T07:30:46;15.10;99.90
23305;DHT22;11821;51.456;8.844;2022-09-24T07:33:12;15.20;99.90
23305;DHT22;11821;51.456;8.844;2022-09-24T07:35:39;15.30;99.90
23305;DHT22;11821;51.456;8.844;2022-09-24T07:38:09;15.30;99.90
23305;DHT22;11821;51.456;8.844;2022-09-24T07:40:37;15.40;99.90
23305;DHT22;11821;51.456;8.844;2022-09-24T07:43:03;15.40;99.90
23305;DHT22;11821;51.456;8.844;2022-09-24T07:45:29;15.50;99.90
23305;DHT22;11821;51.456;8.844;2022-09-24T07:48:00;15.60;99.90
23305;DHT22;11821;51.456;8.844;2022-09-24T07:50:28;15.60;99.90
23305;DHT22;11821;51.456;8.844;2022-09-24T07:52:55;15.80;99.90
23305;DHT22;11821;51.456;8.844;2022-09-24T07:55:22;15.90;99.90
23305;DHT22;11821;51.456;8.844;2022-09-24T07:57:50;15.90;99.90
23305;DHT22;11821;51.456;8.844;2022-09-24T08:00:18;16.00;99.90
23305;DHT22;11821;51.456;8.844;2022-09-24T08:02:45;16.00;99.90
23305;DHT22;11821;51.456;8.844;2022-09-24T08:05:13;16.00;99.90
23305;DHT22;11821;51.456;8.844;2022-09-24T08:07:41;16.20;99.90
23305;DHT22;11821;51.456;8.844;2022-09-24T08:10:08;16.30;99.90
23305;DHT22;11821;51.456;8.844;2022-09-24T08:12:34;16.40;99.90
23305;DHT22;11821;51.456;8.844;2022-09-24T08:15:01;16.40;99.90
23305;DHT22;11821;51.456;8.844;2022-09-24T08:17:27;16.50;99.90
23305;DHT22;11821;51.456;8.844;2022-09-24T08:19:53;16.60;99.90
23305;DHT22;11821;51.456;8.844;2022-09-24T08:22:22;16.80;99.90
23305;DHT22;11821;51.456;8.844;2022-09-24T08:24:50;16.90;99.90
23305;DHT22;11821;51.456;8.844;2022-09-24T08:27:16;17.00;99.90
23305;DHT22;11821;51.456;8.844;2022-09-24T08:29:42;17.20;99.90
23305;DHT22;11821;51.456;8.844;2022-09-24T08:32:09;17.40;99.90
23305;DHT22;11821;51.456;8.844;2022-09-24T08:34:35;17.50;99.90
23305;DHT22;11821;51.456;8.844;2022-09-24T08:37:04;17.60;99.90
23305;DHT22;11821;51.456;8.844;2022-09-24T08:39:31;17.70;99.90
23305;DHT22;11821;51.456;8.844;2022-09-24T08:44:45;17.80;99.90
23305;DHT22;11821;51.456;8.844;2022-09-24T08:47:42;17.80;99.90
23305;DHT22;11821;51.456;8.844;2022-09-24T08:50:30;17.90;99.90
23305;DHT22;11821;51.456;8.844;2022-09-24T08:53:14;17.80;99.90
23305;DHT22;11821;51.456;8.844;2022-09-24T08:55:45;17.90;99.90
23305;DHT22;11821;51.456;8.844;2022-09-24T08:58:29;17.90;99.90
23305;DHT22;11821;51.456;8.844;2022-09-24T09:06:02;18.00;99.90
23305;DHT22;11821;51.456;8.844;2022-09-24T09:08:51;18.10;99.90
23305;DHT22;11821;51.456;8.844;2022-09-24T09:11:22;18.00;99.90
23305;DHT22;11821;51.456;8.844;2022-09-24T09:14:01;18.10;99.90
23305;DHT22;11821;51.456;8.844;2022-09-24T09:16:33;18.10;99.90
23305;DHT22;11821;51.456;8.844;2022-09-24T09:19:04;18.10;99.90
23305;DHT22;11821;51.456;8.844;2022-09-24T09:21:36;18.10;99.90
23305;DHT22;11821;51.456;8.844;2022-09-24T09:24:11;18.00;99.90
23305;DHT22;11821;51.456;8.844;2022-09-24T09:26:54;18.20;99.90
23305;DHT22;11821;51.456;8.844;2022-09-24T09:29:22;18.30;99.90
23305;DHT22;11821;51.456;8.844;2022-09-24T09:32:12;18.40;99.90
23305;DHT22;11821;51.456;8.844;2022-09-24T09:35:00;18.40;99.90
23305;DHT22;11821;51.456;8.844;2022-09-24T09:40:51;18.60;99.90
23305;DHT22;11821;51.456;8.844;2022-09-24T09:43:19;18.90;99.90
23305;DHT22;11821;51.456;8.844;2022-09-24T09:48:30;18.70;99.90
23305;DHT22;11821;51.456;8.844;2022-09-24T09:51:05;18.80;99.90
23305;DHT22;11821;51.456;8.844;2022-09-24T09:53:34;18.70;99.90
23305;DHT22;11821;51.456;8.844;2022-09-24T09:56:04;18.80;99.90
23305;DHT22;11821;51.456;8.844;2022-09-24T09:58:33;19.00;99.90
23305;DHT22;11821;51.456;8.844;2022-09-24T10:01:08;19.20;99.90
23305;DHT22;11821;51.456;8.844;2022-09-24T10:06:28;19.60;99.90
23305;DHT22;11821;51.456;8.844;2022-09-24T10:09:08;19.60;99.90
23305;DHT22;11821;51.456;8.844;2022-09-24T10:11:36;19.80;99.90
23305;DHT22;11821;51.456;8.844;2022-09-24T10:14:04;19.90;99.90
23305;DHT22;11821;51.456;8.844;2022-09-24T10:16:38;19.80;99.90
23305;DHT22;11821;51.456;8.844;2022-09-24T10:19:20;19.90;99.90
23305;DHT22;11821;51.456;8.844;2022-09-24T10:21:47;19.90;99.90
23305;DHT22;11821;51.456;8.844;2022-09-24T10:24:25;20.20;99.90
23305;DHT22;11821;51.456;8.844;2022-09-24T10:26:52;20.30;99.90
23305;DHT22;11821;51.456;8.844;2022-09-24T10:29:23;20.30;99.90
23305;DHT22;11821;51.456;8.844;2022-09-24T10:32:18;20.30;99.90
23305;DHT22;11821;51.456;8.844;2022-09-24T10:34:58;20.50;99.90
23305;DHT22;11821;51.456;8.844;2022-09-24T10:37:26;20.60;99.90
23305;DHT22;11821;51.456;8.844;2022-09-24T10:40:00;20.30;99.90
23305;DHT22;11821;51.456;8.844;2022-09-24T10:42:29;20.20;99.90
23305;DHT22;11821;51.456;8.844;2022-09-24T10:44:59;20.40;99.90
23305;DHT22;11821;51.456;8.844;2022-09-24T10:47:54;20.50;99.90
23305;DHT22;11821;51.456;8.844;2022-09-24T10:50:24;20.30;99.90
23305;DHT22;11821;51.456;8.844;2022-09-24T10:52:56;20.40;99.90
23305;DHT22;11821;51.456;8.844;2022-09-24T11:09:33;20.00;99.90
23305;DHT22;11821;51.456;8.844;2022-09-24T11:12:27;20.30;99.90
23305;DHT22;11821;51.456;8.844;2022-09-24T11:20:32;20.20;99.90
23305;DHT22;11821;51.456;8.844;2022-09-24T11:26:23;20.00;99.90
23305;DHT22;11821;51.456;8.844;2022-09-24T11:55:45;19.70;99.90
23305;DHT22;11821;51.456;8.844;2022-09-24T11:58:27;19.70;99.90
23305;DHT22;11821;51.456;8.844;2022-09-24T12:01:35;19.70;99.90
23305;DHT22;11821;51.456;8.844;2022-09-24T12:04:29;19.80;99.90
23305;DHT22;11821;51.456;8.844;2022-09-24T12:07:04;19.80;99.90
23305;DHT22;11821;51.456;8.844;2022-09-24T12:12:34;19.80;99.90
23305;DHT22;11821;51.456;8.844;2022-09-24T12:17:36;19.70;99.90
23305;DHT22;11821;51.456;8.844;2022-09-24T12:20:17;19.70;99.90
23305;DHT22;11821;51.456;8.844;2022-09-24T12:22:48;19.70;99.90
23305;DHT22;11821;51.456;8.844;2022-09-24T12:25:15;19.70;99.90
23305;DHT22;11821;51.456;8.844;2022-09-24T12:27:42;19.70;99.90
23305;DHT22;11821;51.456;8.844;2022-09-24T12:33:26;19.60;99.90
23305;DHT22;11821;51.456;8.844;2022-09-24T12:36:23;19.50;99.90
23305;DHT22;11821;51.456;8.844;2022-09-24T12:38:58;19.50;99.90
23305;DHT22;11821;51.456;8.844;2022-09-24T12:41:33;19.40;99.90
23305;DHT22;11821;51.456;8.844;2022-09-24T12:46:29;19.50;99.90
23305;DHT22;11821;51.456;8.844;2022-09-24T12:48:56;19.50;99.90
23305;DHT22;11821;51.456;8.844;2022-09-24T12:51:23;19.30;99.90
23305;DHT22;11821;51.456;8.844;2022-09-24T12:54:07;19.30;99.90
23305;DHT22;11821;51.456;8.844;2022-09-24T12:56:34;19.30;99.90
23305;DHT22;11821;51.456;8.844;2022-09-24T12:59:00;19.30;99.90
23305;DHT22;11821;51.456;8.844;2022-09-24T13:01:31;19.30;99.90
23305;DHT22;11821;51.456;8.844;2022-09-24T13:06:42;19.20;99.90
23305;DHT22;11821;51.456;8.844;2022-09-24T13:12:01;19.30;99.90
23305;DHT22;11821;51.456;8.844;2022-09-24T13:14:30;19.00;99.90
23305;DHT22;11821;51.456;8.844;2022-09-24T13:16:57;19.00;99.90
23305;DHT22;11821;51.456;8.844;2022-09-24T13:19:39;19.10;99.90
23305;DHT22;11821;51.456;8.844;2022-09-24T13:22:27;19.20;99.90
23305;DHT22;11821;51.456;8.844;2022-09-24T13:27:38;19.20;99.90
23305;DHT22;11821;51.456;8.844;2022-09-24T13:33:03;19.30;99.90
23305;DHT22;11821;51.456;8.844;2022-09-24T13:38:26;19.30;99.90
23305;DHT22;11821;51.456;8.844;2022-09-24T13:41:20;19.30;99.90
23305;DHT22;11821;51.456;8.844;2022-09-24T13:44:04;19.10;99.90
23305;DHT22;11821;51.456;8.844;2022-09-24T13:46:34;19.10;99.90
23305;DHT22;11821;51.456;8.844;2022-09-24T13:49:07;19.10;99.90
23305;DHT22;11821;51.456;8.844;2022-09-24T13:51:37;19.10;99.90
23305;DHT22;11821;51.456;8.844;2022-09-24T13:54:15;19.10;99.90
23305;DHT22;11821;51.456;8.844;2022-09-24T13:57:19;19.10;99.90
23305;DHT22;11821;51.456;8.844;2022-09-24T13:59:47;19.10;99.90
23305;DHT22;11821;51.456;8.844;2022-09-24T14:02:27;19.10;99.90
23305;DHT22;11821;51.456;8.844;2022-09-24T14:04:58;19.20;99.90
23305;DHT22;11821;51.456;8.844;2022-09-24T14:07:26;19.20;99.90
23305;DHT22;11821;51.456;8.844;2022-09-24T14:10:06;19.20;99.90
23305;DHT22;11821;51.456;8.844;2022-09-24T14:12:33;19.20;99.90
23305;DHT22;11821;51.456;8.844;2022-09-24T14:14:59;19.10;99.90
23305;DHT22;11821;51.456;8.844;2022-09-24T14:17:25;19.10;99.90
23305;DHT22;11821;51.456;8.844;2022-09-24T14:19:55;19.10;99.90
23305;DHT22;11821;51.456;8.844;2022-09-24T14:22:36;19.20;99.90
23305;DHT22;11821;51.456;8.844;2022-09-24T14:25:09;19.00;99.90
23305;DHT22;11821;51.456;8.844;2022-09-24T14:27:45;18.90;99.90
23305;DHT22;11821;51.456;8.844;2022-09-24T14:30:21;18.90;99.90
23305;DHT22;11821;51.456;8.844;2022-09-24T14:33:00;18.90;99.90
23305;DHT22;11821;51.456;8.844;2022-09-24T14:35:33;18.80;99.90
23305;DHT22;11821;51.456;8.844;2022-09-24T14:38:11;18.90;99.90
23305;DHT22;11821;51.456;8.844;2022-09-24T14:40:44;19.00;99.90
23305;DHT22;11821;51.456;8.844;2022-09-24T14:48:37;18.90;99.90
23305;DHT22;11821;51.456;8.844;2022-09-24T14:51:35;19.00;99.90
23305;DHT22;11821;51.456;8.844;2022-09-24T14:54:18;19.00;99.90
23305;DHT22;11821;51.456;8.844;2022-09-24T14:56:44;19.10;99.90
23305;DHT22;11821;51.456;8.844;2022-09-24T14:59:15;18.90;99.90
23305;DHT22;11821;51.456;8.844;2022-09-24T15:04:44;18.90;99.90
23305;DHT22;11821;51.456;8.844;2022-09-24T15:07:20;18.80;99.90
23305;DHT22;11821;51.456;8.844;2022-09-24T15:09:53;18.90;99.90
23305;DHT22;11821;51.456;8.844;2022-09-24T15:12:25;18.80;99.90
23305;DHT22;11821;51.456;8.844;2022-09-24T15:17:43;18.70;99.90
23305;DHT22;11821;51.456;8.844;2022-09-24T15:20:11;18.90;99.90
23305;DHT22;11821;51.456;8.844;2022-09-24T15:22:38;18.90;99.90
23305;DHT22;11821;51.456;8.844;2022-09-24T15:25:04;18.80;99.90
23305;DHT22;11821;51.456;8.844;2022-09-24T15:27:33;18.80;99.90
23305;DHT22;11821;51.456;8.844;2022-09-24T15:30:04;18.80;99.90
23305;DHT22;11821;51.456;8.844;2022-09-24T15:32:32;18.60;99.90
23305;DHT22;11821;51.456;8.844;2022-09-24T15:35:02;18.60;99.90
23305;DHT22;11821;51.456;8.844;2022-09-24T15:37:33;18.70;99.90
23305;DHT22;11821;51.456;8.844;2022-09-24T15:40:26;18.70;99.90
23305;DHT22;11821;51.456;8.844;2022-09-24T15:42:56;18.60;99.90
23305;DHT22;11821;51.456;8.844;2022-09-24T15:45:23;18.60;99.90
23305;DHT22;11821;51.456;8.844;2022-09-24T15:47:51;18.60;99.90
23305;DHT22;11821;51.456;8.844;2022-09-24T15:50:21;18.50;99.90
23305;DHT22;11821;51.456;8.844;2022-09-24T15:52:56;18.50;99.90
23305;DHT22;11821;51.456;8.844;2022-09-24T15:55:23;18.40;99.90
23305;DHT22;11821;51.456;8.844;2022-09-24T15:57:50;18.40;99.90
23305;DHT22;11821;51.456;8.844;2022-09-24T16:00:18;18.40;99.90
23305;DHT22;11821;51.456;8.844;2022-09-24T16:02:50;18.30;99.90
23305;DHT22;11821;51.456;8.844;2022-09-24T16:05:18;18.30;99.90
23305;DHT22;11821;51.456;8.844;2022-09-24T16:07:44;18.20;99.90
23305;DHT22;11821;51.456;8.844;2022-09-24T16:10:12;18.10;99.90
23305;DHT22;11821;51.456;8.844;2022-09-24T16:12:40;18.10;99.90
23305;DHT22;11821;51.456;8.844;2022-09-24T16:15:07;18.00;99.90
23305;DHT22;11821;51.456;8.844;2022-09-24T16:17:36;18.00;99.90
23305;DHT22;11821;51.456;8.844;2022-09-24T16:20:04;18.00;99.90
23305;DHT22;11821;51.456;8.844;2022-09-24T16:22:30;18.10;99.90
23305;DHT22;11821;51.456;8.844;2022-09-24T16:24:57;18.00;99.90
23305;DHT22;11821;51.456;8.844;2022-09-24T16:27:23;17.90;99.90
23305;DHT22;11821;51.456;8.844;2022-09-24T16:29:49;18.00;99.90
23305;DHT22;11821;51.456;8.844;2022-09-24T16:32:16;18.00;99.90
23305;DHT22;11821;51.456;8.844;2022-09-24T16:34:42;17.90;99.90
23305;DHT22;11821;51.456;8.844;2022-09-24T16:37:09;17.90;99.90
23305;DHT22;11821;51.456;8.844;2022-09-24T16:39:35;17.90;99.90
23305;DHT22;11821;51.456;8.844;2022-09-24T16:42:01;17.90;99.90
23305;DHT22;11821;51.456;8.844;2022-09-24T16:44:28;17.90;99.90
23305;DHT22;11821;51.456;8.844;2022-09-24T16:46:54;17.90;99.90
23305;DHT22;11821;51.456;8.844;2022-09-24T16:49:22;17.90;99.90
23305;DHT22;11821;51.456;8.844;2022-09-24T16:51:48;17.80;99.90
23305;DHT22;11821;51.456;8.844;2022-09-24T16:54:15;17.70;99.90
23305;DHT22;11821;51.456;8.844;2022-09-24T16:56:41;17.80;99.90
23305;DHT22;11821;51.456;8.844;2022-09-24T16:59:09;17.70;99.90
23305;DHT22;11821;51.456;8.844;2022-09-24T17:01:36;17.60;99.90
23305;DHT22;11821;51.456;8.844;2022-09-24T17:04:05;17.50;99.90
23305;DHT22;11821;51.456;8.844;2022-09-24T17:06:31;17.60;99.90
23305;DHT22;11821;51.456;8.844;2022-09-24T17:08:59;17.50;99.90
23305;DHT22;11821;51.456;8.844;2022-09-24T17:11:44;17.50;99.90
23305;DHT22;11821;51.456;8.844;2022-09-24T17:14:12;17.40;99.90
23305;DHT22;11821;51.456;8.844;2022-09-24T17:16:38;17.30;99.90
23305;DHT22;11821;51.456;8.844;2022-09-24T17:19:05;17.30;99.90
23305;DHT22;11821;51.456;8.844;2022-09-24T17:21:39;17.30;99.90
23305;DHT22;11821;51.456;8.844;2022-09-24T17:24:06;17.30;99.90
23305;DHT22;11821;51.456;8.844;2022-09-24T17:26:33;17.20;99.90
23305;DHT22;11821;51.456;8.844;2022-09-24T17:29:00;17.20;99.90
23305;DHT22;11821;51.456;8.844;2022-09-24T17:31:27;17.20;99.90
23305;DHT22;11821;51.456;8.844;2022-09-24T17:33:57;17.20;99.90
23305;DHT22;11821;51.456;8.844;2022-09-24T17:36:26;17.10;99.90
23305;DHT22;11821;51.456;8.844;2022-09-24T17:38:53;17.10;99.90
23305;DHT22;11821;51.456;8.844;2022-09-24T17:41:21;17.00;99.90
23305;DHT22;11821;51.456;8.844;2022-09-24T17:43:48;17.10;99.90
23305;DHT22;11821;51.456;8.844;2022-09-24T17:46:20;17.00;99.90
23305;DHT22;11821;51.456;8.844;2022-09-24T17:48:49;17.00;99.90
23305;DHT22;11821;51.456;8.844;2022-09-24T17:53:52;16.90;99.90